createdAt,value
2018-12-17T00:01:48.621Z,2.70
2018-12-17T00:06:51.413Z,2.60
2018-12-17T00:11:54.063Z,2.70
2018-12-17T00:16:56.502Z,2.70
2018-12-17T00:21:58.962Z,2.80
2018-12-17T00:27:01.417Z,2.90
2018-12-17T00:32:03.977Z,2.90
2018-12-17T00:37:06.533Z,2.90
2018-12-17T00:42:09.070Z,3.00
2018-12-17T00:47:11.534Z,3.00
2018-12-17T00:52:13.990Z,3.10
2018-12-17T00:57:16.554Z,3.10
2018-12-17T01:02:19.002Z,3.10
2018-12-17T01:07:23.406Z,3.10
2018-12-17T01:12:25.970Z,3.20
2018-12-17T01:17:28.581Z,3.20
2018-12-17T01:22:31.063Z,3.20
2018-12-17T01:27:33.778Z,3.20
2018-12-17T01:32:36.233Z,3.20
2018-12-17T01:37:38.759Z,3.20
2018-12-17T01:42:41.210Z,3.20
2018-12-17T01:47:43.670Z,3.10
2018-12-17T01:52:46.227Z,3.10
2018-12-17T01:57:49.125Z,3.10
2018-12-17T02:02:51.735Z,3.10
2018-12-17T02:07:54.225Z,3.20
2018-12-17T02:12:57.578Z,3.20
2018-12-17T02:18:00.118Z,3.20
2018-12-17T02:23:02.613Z,3.20
2018-12-17T02:28:05.117Z,3.20
2018-12-17T02:33:07.697Z,3.20
2018-12-17T02:38:10.290Z,3.20
2018-12-17T02:43:12.847Z,3.30
2018-12-17T02:48:15.487Z,3.20
2018-12-17T02:53:17.985Z,3.20
2018-12-17T02:58:21.204Z,3.30
2018-12-17T03:03:24.102Z,3.20
2018-12-17T03:08:26.589Z,3.30
2018-12-17T03:13:29.695Z,3.40
2018-12-17T03:18:32.262Z,3.40
2018-12-17T03:23:34.891Z,3.40
2018-12-17T03:28:37.472Z,3.40
2018-12-17T03:33:40.061Z,3.40
2018-12-17T03:38:43.396Z,3.50
2018-12-17T03:43:45.898Z,3.40
2018-12-17T03:48:48.366Z,3.40
2018-12-17T03:53:50.878Z,3.30
2018-12-17T03:58:59.164Z,3.30
2018-12-17T04:03:57.955Z,3.40
2018-12-17T04:09:00.604Z,3.40
2018-12-17T04:14:03.085Z,3.50
2018-12-17T04:19:05.578Z,3.50
2018-12-17T04:24:08.056Z,3.50
2018-12-17T04:29:10.775Z,3.60
2018-12-17T04:34:13.362Z,3.50
2018-12-17T04:39:15.863Z,3.50
2018-12-17T04:44:18.360Z,3.50
2018-12-17T04:49:20.954Z,3.50
2018-12-17T04:54:23.450Z,3.60
2018-12-17T04:59:25.921Z,3.60
2018-12-17T05:04:28.429Z,3.60
2018-12-17T05:09:30.942Z,3.50
2018-12-17T05:14:33.448Z,3.40
2018-12-17T05:19:36.015Z,3.40
2018-12-17T05:24:38.509Z,3.40
2018-12-17T05:29:41.051Z,3.40
2018-12-17T05:34:43.507Z,3.40
2018-12-17T05:39:45.986Z,3.40
2018-12-17T05:44:48.475Z,3.50
2018-12-17T05:49:50.974Z,3.50
2018-12-17T05:54:53.565Z,3.50
2018-12-17T05:59:56.066Z,3.50
2018-12-17T06:04:58.546Z,3.50
2018-12-17T06:10:01.097Z,3.60
2018-12-17T06:15:04.461Z,3.50
2018-12-17T06:20:07.250Z,3.60
2018-12-17T06:25:09.760Z,3.60
2018-12-17T06:30:12.281Z,3.60
2018-12-17T06:35:14.741Z,3.60
2018-12-17T06:40:17.845Z,3.70
2018-12-17T06:45:20.345Z,3.60
2018-12-17T06:50:22.830Z,3.60
2018-12-17T06:55:25.326Z,3.70
2018-12-17T07:00:28.178Z,3.80
2018-12-17T07:05:30.724Z,3.80
2018-12-17T07:10:33.314Z,3.90
2018-12-17T07:15:36.109Z,3.90
2018-12-17T07:20:38.609Z,3.90
2018-12-17T07:25:41.060Z,3.90
2018-12-17T07:30:43.601Z,3.80
2018-12-17T07:35:46.181Z,3.80
2018-12-17T07:40:48.773Z,3.90
2018-12-17T07:45:51.278Z,3.90
2018-12-17T07:50:53.766Z,3.90
2018-12-17T07:55:56.361Z,4.00
2018-12-17T08:00:58.849Z,4.00
2018-12-17T08:06:01.531Z,4.10
2018-12-17T08:11:04.150Z,4.10
2018-12-17T08:16:06.641Z,4.20
2018-12-17T08:21:09.142Z,4.20
2018-12-17T08:26:11.605Z,4.30
2018-12-17T08:31:14.123Z,4.30
2018-12-17T08:36:16.625Z,4.30
2018-12-17T08:41:19.362Z,4.40
2018-12-17T08:46:21.919Z,4.40
2018-12-17T08:51:24.404Z,4.40
2018-12-17T08:56:27.004Z,4.50
2018-12-17T09:01:29.569Z,4.50
2018-12-17T09:06:32.144Z,4.50
2018-12-17T09:11:34.674Z,4.60
2018-12-17T09:16:37.173Z,4.60
2018-12-17T09:21:39.669Z,4.70
2018-12-17T09:26:42.573Z,4.70
2018-12-17T09:31:46.047Z,4.70
2018-12-17T09:36:48.697Z,4.80
2018-12-17T09:41:51.277Z,4.90
2018-12-17T09:46:53.769Z,4.90
2018-12-17T09:51:56.613Z,4.90
2018-12-17T09:56:59.129Z,4.90
2018-12-17T10:02:01.965Z,5.00
2018-12-17T10:07:04.425Z,5.00
2018-12-17T10:12:07.153Z,5.00
2018-12-17T10:17:09.706Z,5.00
2018-12-17T10:22:12.246Z,5.10
2018-12-17T10:27:16.380Z,5.10
2018-12-17T10:32:19.165Z,5.20
2018-12-17T10:37:22.355Z,5.30
2018-12-17T10:42:24.879Z,5.30
2018-12-17T10:47:27.647Z,5.40
2018-12-17T10:52:30.215Z,5.40
2018-12-17T10:57:32.839Z,5.50
2018-12-17T11:02:35.624Z,5.60
2018-12-17T11:07:38.240Z,5.70
2018-12-17T11:12:41.013Z,5.70
2018-12-17T11:17:44.726Z,5.80
2018-12-17T11:22:47.654Z,5.90
2018-12-17T11:27:50.460Z,6.10
2018-12-17T11:32:53.264Z,6.30
2018-12-17T11:37:55.769Z,6.50
2018-12-17T11:42:58.797Z,6.50
2018-12-17T11:48:01.827Z,6.70
2018-12-17T11:53:04.461Z,6.70
2018-12-17T11:58:09.249Z,6.70
2018-12-17T12:03:12.130Z,6.70
2018-12-17T12:08:14.690Z,6.90
2018-12-17T12:13:18.566Z,6.90
2018-12-17T12:18:21.266Z,6.90
2018-12-17T12:23:23.749Z,7.00
2018-12-17T12:28:26.429Z,7.10
2018-12-17T12:33:28.951Z,7.30
2018-12-17T12:38:31.620Z,7.50
2018-12-17T12:43:34.740Z,7.50
2018-12-17T12:48:37.297Z,7.30
2018-12-17T12:53:39.892Z,7.40
2018-12-17T12:58:42.444Z,7.50
2018-12-17T13:03:45.107Z,7.50
2018-12-17T13:08:47.834Z,7.40
2018-12-17T13:13:50.422Z,7.50
2018-12-17T13:18:52.919Z,7.50
2018-12-17T13:23:55.403Z,7.40
2018-12-17T13:28:57.940Z,7.40
2018-12-17T13:34:00.551Z,7.30
2018-12-17T13:39:04.017Z,7.30
2018-12-17T13:44:06.567Z,7.30
2018-12-17T13:49:09.670Z,7.30
2018-12-17T13:54:12.139Z,7.30
2018-12-17T13:59:14.713Z,7.30
2018-12-17T14:04:17.182Z,7.20
2018-12-17T14:09:19.846Z,7.10
2018-12-17T14:14:22.389Z,7.10
2018-12-17T14:19:25.693Z,7.10
2018-12-17T14:24:28.485Z,7.00
2018-12-17T14:29:31.093Z,7.10
2018-12-17T14:34:33.550Z,7.10
2018-12-17T14:39:36.043Z,7.10
2018-12-17T14:44:38.685Z,7.10
2018-12-17T14:49:41.173Z,7.10
2018-12-17T14:54:44.112Z,7.10
2018-12-17T14:59:46.571Z,7.10
2018-12-17T15:04:49.057Z,7.20
2018-12-17T15:09:51.557Z,7.20
2018-12-17T15:14:54.102Z,7.20
2018-12-17T15:19:56.623Z,7.10
2018-12-17T15:24:59.111Z,7.10
2018-12-17T15:30:02.423Z,7.00
2018-12-17T15:35:05.153Z,7.10
2018-12-17T15:40:08.308Z,7.00
2018-12-17T15:45:11.005Z,7.00
2018-12-17T15:50:13.556Z,7.00
2018-12-17T15:55:16.220Z,7.00
2018-12-17T16:00:19.019Z,7.00
2018-12-17T16:05:21.581Z,6.90
2018-12-17T16:10:24.192Z,6.90
2018-12-17T16:15:26.637Z,7.00
2018-12-17T16:20:29.200Z,6.90
2018-12-17T16:30:39.738Z,7.00
2018-12-17T16:35:42.338Z,7.00
2018-12-17T16:40:44.981Z,7.00
2018-12-17T16:45:47.677Z,7.00
2018-12-17T16:50:50.137Z,7.10
2018-12-17T16:55:52.667Z,7.00
2018-12-17T17:00:55.197Z,7.00
2018-12-17T17:05:57.686Z,7.00
2018-12-17T17:11:00.199Z,7.00
2018-12-17T17:16:02.777Z,7.00
2018-12-17T17:21:05.261Z,7.00
2018-12-17T17:26:07.712Z,7.00
2018-12-17T17:31:10.219Z,7.10
2018-12-17T17:36:13.839Z,7.10
2018-12-17T17:41:16.273Z,6.80
2018-12-17T17:46:18.768Z,6.60
2018-12-17T17:51:21.245Z,6.60
2018-12-17T17:56:23.755Z,6.60
2018-12-17T18:01:26.226Z,6.70
2018-12-17T18:06:28.683Z,6.70
2018-12-17T18:11:31.233Z,6.60
2018-12-17T18:16:34.243Z,6.60
2018-12-17T18:21:36.730Z,6.60
2018-12-17T18:26:39.233Z,6.60
2018-12-17T18:31:41.813Z,6.60
2018-12-17T18:36:44.417Z,6.40
2018-12-17T18:41:47.524Z,6.30
2018-12-17T18:46:50.119Z,6.30
2018-12-17T18:51:53.862Z,6.10
2018-12-17T18:56:56.345Z,6.00
2018-12-17T19:01:58.958Z,5.90
2018-12-17T19:07:01.524Z,5.80
2018-12-17T19:12:04.130Z,5.90
2018-12-17T19:17:06.617Z,5.90
2018-12-17T19:22:09.107Z,6.00
2018-12-17T19:27:12.109Z,6.10
2018-12-17T19:32:14.702Z,6.00
2018-12-17T19:37:17.206Z,5.90
2018-12-17T19:42:19.694Z,5.90
2018-12-17T19:47:22.605Z,5.90
2018-12-17T19:52:25.738Z,5.80
2018-12-17T19:57:28.296Z,5.70
2018-12-17T20:02:30.789Z,5.70
2018-12-17T20:07:33.285Z,5.80
2018-12-17T20:12:35.888Z,5.70
2018-12-17T20:17:38.370Z,5.70
2018-12-17T20:22:40.874Z,5.50
2018-12-17T20:27:43.773Z,5.30
2018-12-17T20:32:46.272Z,5.50
2018-12-17T20:37:48.861Z,5.60
2018-12-17T20:42:51.351Z,5.60
2018-12-17T20:47:53.850Z,5.60
2018-12-17T20:52:56.329Z,5.40
2018-12-17T20:57:58.968Z,5.40
2018-12-17T21:03:01.938Z,5.60
2018-12-17T21:08:05.304Z,5.60
2018-12-17T21:13:07.742Z,5.70
2018-12-17T21:18:10.241Z,5.80
2018-12-17T21:23:12.734Z,5.80
2018-12-17T21:28:15.220Z,5.90
2018-12-17T21:33:17.710Z,5.90
2018-12-17T21:38:20.264Z,5.80
2018-12-17T21:43:22.698Z,5.90
2018-12-17T21:48:25.248Z,5.80
2018-12-17T21:53:27.697Z,5.70
2018-12-17T21:58:30.194Z,5.80
2018-12-17T22:03:33.590Z,5.80
2018-12-17T22:08:36.081Z,5.70
2018-12-17T22:13:38.797Z,5.50
2018-12-17T22:18:41.270Z,5.40
2018-12-17T22:23:43.769Z,5.60
2018-12-17T22:28:46.272Z,5.70
2018-12-17T22:33:48.753Z,5.80
2018-12-17T22:38:51.918Z,5.90
2018-12-17T22:43:54.465Z,5.90
2018-12-17T22:48:56.958Z,6.00
2018-12-17T22:53:59.449Z,6.00
2018-12-17T22:59:02.039Z,6.10
2018-12-17T23:04:04.779Z,6.20
2018-12-17T23:09:07.052Z,6.20
2018-12-17T23:14:21.505Z,6.20
2018-12-17T23:19:23.590Z,6.20
2018-12-17T23:24:26.754Z,6.30
2018-12-17T23:29:29.297Z,6.30
2018-12-17T23:34:31.881Z,6.30
2018-12-17T23:39:34.374Z,6.40
2018-12-17T23:44:36.966Z,6.40
2018-12-17T23:49:39.590Z,6.30
2018-12-17T23:54:42.371Z,6.30
2018-12-17T23:59:44.866Z,6.30
